createdAt,value
2023-01-28T00:00:01.815Z,-0.80
2023-01-28T00:02:11.018Z,-0.72
2023-01-28T00:04:18.868Z,-0.63
2023-01-28T00:06:27.004Z,-0.81
2023-01-28T00:08:35.134Z,-0.79
2023-01-28T00:10:45.864Z,-0.92
2023-01-28T00:12:53.958Z,-0.87
2023-01-28T00:15:17.730Z,-0.92
2023-01-28T00:17:27.200Z,-0.80
2023-01-28T00:19:35.028Z,-0.82
2023-01-28T00:21:44.747Z,-0.68
2023-01-28T00:23:56.000Z,-0.64
2023-01-28T00:26:08.917Z,-0.75
2023-01-28T00:28:16.886Z,-0.67
2023-01-28T00:30:24.595Z,-0.64
2023-01-28T00:32:32.763Z,-0.63
2023-01-28T00:34:40.884Z,-0.62
2023-01-28T00:36:57.973Z,-0.63
2023-01-28T00:39:06.212Z,-0.64
2023-01-28T00:41:19.161Z,-0.77
2023-01-28T00:43:26.903Z,-0.77
2023-01-28T00:45:34.932Z,-0.70
2023-01-28T00:47:44.527Z,-0.63
2023-01-28T00:49:52.842Z,-0.63
2023-01-28T00:52:00.788Z,-0.59
2023-01-28T00:54:09.090Z,-0.55
2023-01-28T00:56:21.283Z,-0.64
2023-01-28T00:58:30.670Z,-0.67
2023-01-28T01:00:38.466Z,-0.65
2023-01-28T01:02:46.359Z,-0.67
2023-01-28T01:05:03.702Z,-0.77
2023-01-28T01:07:11.615Z,-0.71
2023-01-28T01:09:19.414Z,-0.71
2023-01-28T01:11:30.143Z,-0.81
2023-01-28T01:13:39.102Z,-0.80
2023-01-28T01:15:47.340Z,-0.75
2023-01-28T01:17:55.331Z,-0.75
2023-01-28T01:20:03.457Z,-0.74
2023-01-28T01:22:11.211Z,-0.65
2023-01-28T01:24:19.380Z,-0.72
2023-01-28T01:26:30.204Z,-0.68
2023-01-28T01:28:42.074Z,-0.82
2023-01-28T01:30:50.619Z,-0.67
2023-01-28T01:32:58.615Z,-0.61
2023-01-28T01:35:09.037Z,-0.58
2023-01-28T01:37:17.047Z,-0.64
2023-01-28T01:39:26.634Z,-0.58
2023-01-28T01:41:38.094Z,-0.62
2023-01-28T01:43:51.933Z,-0.56
2023-01-28T01:46:03.492Z,-0.62
2023-01-28T01:48:19.268Z,-0.62
2023-01-28T01:50:34.775Z,-0.69
2023-01-28T01:52:45.758Z,-0.57
2023-01-28T01:54:59.363Z,-0.59
2023-01-28T01:57:13.178Z,-0.76
2023-01-28T01:59:26.882Z,-0.58
2023-01-28T02:01:35.731Z,-0.51
2023-01-28T02:03:55.229Z,-0.54
2023-01-28T02:06:03.320Z,-0.48
2023-01-28T02:08:26.577Z,-0.45
2023-01-28T02:10:35.107Z,-0.58
2023-01-28T02:12:50.721Z,-0.66
2023-01-28T02:15:04.075Z,-0.65
2023-01-28T02:17:12.606Z,-0.55
2023-01-28T02:19:25.416Z,-0.60
2023-01-28T02:22:04.490Z,-0.59
2023-01-28T02:24:42.489Z,-0.54
2023-01-28T02:27:01.554Z,-0.57
2023-01-28T02:29:18.449Z,-0.60
2023-01-28T02:31:30.373Z,-0.54
2023-01-28T02:33:44.875Z,-0.48
2023-01-28T02:35:56.457Z,-0.72
2023-01-28T02:38:11.367Z,-0.71
2023-01-28T02:40:25.534Z,-0.71
2023-01-28T02:42:35.545Z,-0.70
2023-01-28T02:44:46.299Z,-0.73
2023-01-28T02:47:08.087Z,-0.58
2023-01-28T02:49:19.794Z,-0.57
2023-01-28T02:51:36.586Z,-0.51
2023-01-28T02:53:47.612Z,-0.42
2023-01-28T02:56:03.243Z,-0.57
2023-01-28T02:58:19.540Z,-0.59
2023-01-28T03:00:37.928Z,-0.41
2023-01-28T03:02:54.583Z,-0.31
2023-01-28T03:05:09.168Z,-0.51
2023-01-28T03:07:20.071Z,-0.50
2023-01-28T03:09:27.381Z,-0.65
2023-01-28T03:11:51.389Z,-0.53
2023-01-28T03:14:11.944Z,-0.66
2023-01-28T03:16:35.205Z,-0.76
2023-01-28T03:19:02.771Z,-0.66
2023-01-28T03:21:26.065Z,-0.60
2023-01-28T03:23:55.190Z,-0.69
2023-01-28T03:26:18.998Z,-0.68
2023-01-28T03:28:43.853Z,-0.52
2023-01-28T03:31:12.028Z,-0.61
2023-01-28T03:33:43.827Z,-0.65
2023-01-28T03:36:04.879Z,-0.68
2023-01-28T03:38:23.103Z,-0.53
2023-01-28T03:40:32.450Z,-0.57
2023-01-28T03:42:41.038Z,-0.61
2023-01-28T03:44:54.949Z,-0.65
2023-01-28T03:47:07.600Z,-0.68
2023-01-28T03:49:19.121Z,-0.52
2023-01-28T03:51:27.454Z,-0.58
2023-01-28T03:53:35.562Z,-0.59
2023-01-28T03:55:43.402Z,-0.53
2023-01-28T03:57:53.069Z,-0.49
2023-01-28T04:00:01.200Z,-0.46
2023-01-28T04:02:11.142Z,-0.50
2023-01-28T04:04:25.741Z,-0.48
2023-01-28T04:06:36.464Z,-0.55
2023-01-28T04:09:19.629Z,-0.55
2023-01-28T04:11:36.337Z,-0.59
2023-01-28T04:13:46.794Z,-0.66
2023-01-28T04:15:56.233Z,-0.72
2023-01-28T04:18:04.802Z,-0.59
2023-01-28T04:20:20.324Z,-0.63
2023-01-28T04:22:28.481Z,-0.65
2023-01-28T04:24:39.690Z,-0.59
2023-01-28T04:26:48.068Z,-0.73
2023-01-28T04:28:57.233Z,-0.73
2023-01-28T04:31:05.535Z,-0.74
2023-01-28T04:33:27.154Z,-0.64
2023-01-28T04:35:47.265Z,-0.70
2023-01-28T04:38:24.366Z,-0.61
2023-01-28T04:40:43.216Z,-0.62
2023-01-28T04:42:58.134Z,-0.62
2023-01-28T04:45:18.623Z,-0.54
2023-01-28T04:47:38.326Z,-0.58
2023-01-28T04:50:04.839Z,-0.67
2023-01-28T04:52:27.903Z,-0.64
2023-01-28T04:54:54.141Z,-0.70
2023-01-28T04:57:02.576Z,-0.71
2023-01-28T04:59:11.555Z,-0.61
2023-01-28T05:01:20.223Z,-0.68
2023-01-28T05:03:29.103Z,-0.65
2023-01-28T05:05:39.475Z,-0.63
2023-01-28T05:08:14.725Z,-0.67
2023-01-28T05:10:23.204Z,-0.64
2023-01-28T05:12:33.061Z,-0.65
2023-01-28T05:14:44.113Z,-0.47
2023-01-28T05:16:59.924Z,-0.39
2023-01-28T05:19:14.338Z,-0.43
2023-01-28T05:21:29.777Z,-0.53
2023-01-28T05:23:46.122Z,-0.43
2023-01-28T05:25:54.005Z,-0.50
2023-01-28T05:28:01.936Z,-0.57
2023-01-28T05:30:11.643Z,-0.44
2023-01-28T05:32:19.672Z,-0.57
2023-01-28T05:34:36.431Z,-0.54
2023-01-28T05:36:54.297Z,-0.64
2023-01-28T05:39:16.019Z,-0.66
2023-01-28T05:41:24.279Z,-0.62
2023-01-28T05:43:40.754Z,-0.66
2023-01-28T05:46:00.250Z,-0.74
2023-01-28T05:48:22.104Z,-0.68
2023-01-28T05:50:45.492Z,-0.52
2023-01-28T05:52:58.435Z,-0.62
2023-01-28T05:55:15.215Z,-0.58
2023-01-28T05:57:23.257Z,-0.51
2023-01-28T05:59:32.116Z,-0.59
2023-01-28T06:01:40.540Z,-0.58
2023-01-28T06:03:48.410Z,-0.43
2023-01-28T06:05:56.253Z,-0.44
2023-01-28T06:08:04.233Z,-0.42
2023-01-28T06:10:18.195Z,-0.55
2023-01-28T06:12:26.583Z,-0.42
2023-01-28T06:14:54.458Z,-0.43
2023-01-28T06:17:17.518Z,-0.39
2023-01-28T06:19:34.105Z,-0.33
2023-01-28T06:21:45.894Z,-0.37
2023-01-28T06:23:54.393Z,-0.38
2023-01-28T06:26:05.240Z,-0.39
2023-01-28T06:28:13.410Z,-0.37
2023-01-28T06:30:21.506Z,-0.32
2023-01-28T06:32:29.469Z,-0.30
2023-01-28T06:34:37.380Z,-0.22
2023-01-28T06:36:45.316Z,-0.25
2023-01-28T06:38:53.169Z,-0.25
2023-01-28T06:41:01.128Z,-0.28
2023-01-28T06:43:11.982Z,-0.34
2023-01-28T06:45:20.127Z,-0.21
2023-01-28T06:47:28.067Z,-0.30
2023-01-28T06:49:36.162Z,-0.30
2023-01-28T06:51:45.304Z,-0.38
2023-01-28T06:53:53.574Z,-0.35
2023-01-28T06:56:01.571Z,-0.17
2023-01-28T06:58:12.350Z,-0.36
2023-01-28T07:00:22.097Z,-0.37
2023-01-28T07:02:30.094Z,-0.31
2023-01-28T07:04:38.096Z,-0.28
2023-01-28T07:06:46.079Z,-0.29
2023-01-28T07:08:54.290Z,-0.51
2023-01-28T07:11:04.177Z,-0.44
2023-01-28T07:13:15.687Z,-0.45
2023-01-28T07:15:23.733Z,-0.43
2023-01-28T07:17:32.179Z,-0.41
2023-01-28T07:19:40.358Z,-0.25
2023-01-28T07:21:48.771Z,-0.37
2023-01-28T07:23:58.157Z,-0.31
2023-01-28T07:26:07.021Z,-0.19
2023-01-28T07:28:21.498Z,-0.16
2023-01-28T07:30:29.484Z,-0.25
2023-01-28T07:32:37.668Z,-0.38
2023-01-28T07:34:45.415Z,-0.20
2023-01-28T07:36:53.395Z,-0.15
2023-01-28T07:39:01.268Z,-0.11
2023-01-28T07:41:12.002Z,-0.17
2023-01-28T07:43:22.983Z,-0.26
2023-01-28T07:45:32.124Z,-0.20
2023-01-28T07:47:40.015Z,-0.24
2023-01-28T07:49:48.417Z,-0.11
2023-01-28T07:51:56.234Z,-0.11
2023-01-28T07:54:04.265Z,-0.08
2023-01-28T07:56:12.664Z,0.03
2023-01-28T07:58:23.202Z,-0.11
2023-01-28T08:00:33.697Z,-0.12
2023-01-28T08:02:41.599Z,-0.06
2023-01-28T08:04:49.818Z,-0.04
2023-01-28T08:06:57.859Z,0.07
2023-01-28T08:09:06.462Z,0.12
2023-01-28T08:11:14.271Z,0.01
2023-01-28T08:13:25.036Z,-0.05
2023-01-28T08:15:35.169Z,0.18
2023-01-28T08:17:43.517Z,0.27
2023-01-28T08:19:51.489Z,0.26
2023-01-28T08:21:59.591Z,0.43
2023-01-28T08:24:08.416Z,0.27
2023-01-28T08:26:16.516Z,0.40
2023-01-28T08:28:27.172Z,0.58
2023-01-28T08:30:38.009Z,0.46
2023-01-28T08:32:46.064Z,0.49
2023-01-28T08:34:54.353Z,0.45
2023-01-28T08:37:02.225Z,0.40
2023-01-28T08:39:17.047Z,0.55
2023-01-28T08:41:26.615Z,0.43
2023-01-28T08:43:37.691Z,0.50
2023-01-28T08:45:47.420Z,0.59
2023-01-28T08:47:56.908Z,0.58
2023-01-28T08:50:04.760Z,0.67
2023-01-28T08:52:14.323Z,0.40
2023-01-28T08:54:22.368Z,0.63
2023-01-28T08:56:30.638Z,0.68
2023-01-28T08:58:41.945Z,0.51
2023-01-28T09:00:50.695Z,0.71
2023-01-28T09:02:58.634Z,1.00
2023-01-28T09:05:07.155Z,0.85
2023-01-28T09:07:15.305Z,1.11
2023-01-28T09:09:23.305Z,1.21
2023-01-28T09:11:32.268Z,1.04
2023-01-28T09:13:42.660Z,0.87
2023-01-28T09:15:51.363Z,0.98
2023-01-28T09:18:01.550Z,1.09
2023-01-28T09:20:11.810Z,1.14
2023-01-28T09:22:20.402Z,1.26
2023-01-28T09:24:28.563Z,1.59
2023-01-28T09:26:38.228Z,1.74
2023-01-28T09:28:50.613Z,1.74
2023-01-28T09:31:06.881Z,1.48
2023-01-28T09:33:14.720Z,1.32
2023-01-28T09:35:27.506Z,1.15
2023-01-28T09:37:41.713Z,1.09
2023-01-28T09:39:49.674Z,0.97
2023-01-28T09:42:09.923Z,1.18
2023-01-28T09:44:35.161Z,1.04
2023-01-28T09:46:45.750Z,1.22
2023-01-28T09:48:56.022Z,1.49
2023-01-28T09:51:04.354Z,1.56
2023-01-28T09:53:19.237Z,1.37
2023-01-28T09:55:35.131Z,1.35
2023-01-28T09:57:46.265Z,1.33
2023-01-28T09:59:56.865Z,1.19
2023-01-28T10:02:20.994Z,1.04
2023-01-28T10:04:42.266Z,0.98
2023-01-28T10:07:01.217Z,1.05
2023-01-28T10:09:38.559Z,1.16
2023-01-28T10:11:57.886Z,1.20
2023-01-28T10:14:12.551Z,0.87
2023-01-28T10:16:32.403Z,0.91
2023-01-28T10:18:47.471Z,1.02
2023-01-28T10:21:01.044Z,0.91
2023-01-28T10:23:15.258Z,0.85
2023-01-28T10:25:25.233Z,0.89
2023-01-28T10:27:35.268Z,0.82
2023-01-28T10:29:46.180Z,1.02
2023-01-28T10:32:06.187Z,0.88
2023-01-28T10:34:14.507Z,0.75
2023-01-28T10:36:22.545Z,0.89
2023-01-28T10:38:30.848Z,0.94
2023-01-28T10:40:39.499Z,1.00
2023-01-28T10:42:48.460Z,1.01
2023-01-28T10:45:00.565Z,0.96
2023-01-28T10:47:16.436Z,0.93
2023-01-28T10:49:29.881Z,0.90
2023-01-28T10:51:39.694Z,0.96
2023-01-28T10:53:49.029Z,1.07
2023-01-28T10:56:02.566Z,1.10
2023-01-28T10:58:20.939Z,1.46
2023-01-28T11:00:31.803Z,1.20
2023-01-28T11:02:42.847Z,0.99
2023-01-28T11:04:50.673Z,1.03
2023-01-28T11:07:01.282Z,1.02
2023-01-28T11:09:24.283Z,1.40
2023-01-28T11:11:32.715Z,1.17
2023-01-28T11:13:53.634Z,1.35
2023-01-28T11:16:05.892Z,1.59
2023-01-28T11:18:22.281Z,1.52
2023-01-28T11:20:33.155Z,1.41
2023-01-28T11:22:46.079Z,1.40
2023-01-28T11:24:54.195Z,1.29
2023-01-28T11:27:13.542Z,1.20
2023-01-28T11:29:26.975Z,1.34
2023-01-28T11:31:47.075Z,1.48
2023-01-28T11:34:00.005Z,1.54
2023-01-28T11:36:16.220Z,1.49
2023-01-28T11:38:25.887Z,1.38
2023-01-28T11:40:33.762Z,1.24
2023-01-28T11:42:41.687Z,1.33
2023-01-28T11:44:51.137Z,1.46
2023-01-28T11:47:18.893Z,1.51
2023-01-28T11:49:36.243Z,1.70
2023-01-28T11:51:51.294Z,1.65
2023-01-28T11:54:14.911Z,1.60
2023-01-28T11:56:32.788Z,1.24
2023-01-28T11:58:50.914Z,1.16
2023-01-28T12:01:06.336Z,1.22
2023-01-28T12:03:29.697Z,1.01
2023-01-28T12:05:49.229Z,1.11
2023-01-28T12:08:05.547Z,1.00
2023-01-28T12:10:23.252Z,1.12
2023-01-28T12:13:04.337Z,1.06
2023-01-28T12:15:38.685Z,1.01
2023-01-28T12:18:00.704Z,1.14
2023-01-28T12:20:18.605Z,1.12
2023-01-28T12:23:00.207Z,1.13
2023-01-28T12:25:22.839Z,1.15
2023-01-28T12:27:43.640Z,1.12
2023-01-28T12:30:03.443Z,1.19
2023-01-28T12:32:40.521Z,0.99
2023-01-28T12:35:25.121Z,1.20
2023-01-28T12:37:47.966Z,1.18
2023-01-28T12:40:09.019Z,1.14
2023-01-28T12:42:23.463Z,1.19
2023-01-28T12:44:37.466Z,1.07
2023-01-28T12:46:52.385Z,0.91
2023-01-28T12:49:06.611Z,0.96
2023-01-28T12:51:19.430Z,1.07
2023-01-28T12:53:34.393Z,0.99
2023-01-28T12:55:48.336Z,1.12
2023-01-28T12:57:59.709Z,0.97
2023-01-28T13:00:22.105Z,0.87
2023-01-28T13:02:36.536Z,0.71
2023-01-28T13:04:51.085Z,0.80
2023-01-28T13:07:03.141Z,0.97
2023-01-28T13:09:21.688Z,0.88
2023-01-28T13:11:37.179Z,0.88
2023-01-28T13:13:49.887Z,0.69
2023-01-28T13:15:57.842Z,0.63
2023-01-28T13:18:08.123Z,0.74
2023-01-28T13:20:19.916Z,0.85
2023-01-28T13:22:35.320Z,1.00
2023-01-28T13:24:45.800Z,0.91
2023-01-28T13:26:55.851Z,1.00
2023-01-28T13:29:23.507Z,0.85
2023-01-28T13:31:40.723Z,0.97
2023-01-28T13:33:51.457Z,0.98
2023-01-28T13:36:00.225Z,1.10
2023-01-28T13:38:16.970Z,1.32
2023-01-28T13:40:31.433Z,1.42
2023-01-28T13:42:39.806Z,1.30
2023-01-28T13:44:48.354Z,1.17
2023-01-28T13:46:58.359Z,1.43
2023-01-28T13:49:08.068Z,1.40
2023-01-28T13:51:23.294Z,1.52
2023-01-28T13:53:42.831Z,1.29
2023-01-28T13:55:57.995Z,1.31
2023-01-28T13:58:41.056Z,1.36
2023-01-28T14:01:13.989Z,1.18
2023-01-28T14:03:51.912Z,1.21
2023-01-28T14:06:21.471Z,1.20
2023-01-28T14:08:56.332Z,1.00
2023-01-28T14:11:26.308Z,0.85
2023-01-28T14:13:45.387Z,0.91
2023-01-28T14:16:17.511Z,0.82
2023-01-28T14:18:29.724Z,0.86
2023-01-28T14:20:43.213Z,0.81
2023-01-28T14:22:53.107Z,0.95
2023-01-28T14:25:05.151Z,1.03
2023-01-28T14:27:20.679Z,0.87
2023-01-28T14:29:40.053Z,0.78
2023-01-28T14:31:48.297Z,0.78
2023-01-28T14:33:56.737Z,0.87
2023-01-28T14:36:04.635Z,0.81
2023-01-28T14:38:18.340Z,0.87
2023-01-28T14:40:26.674Z,0.67
2023-01-28T14:42:41.975Z,0.81
2023-01-28T14:44:57.143Z,0.65
2023-01-28T14:47:35.887Z,0.66
2023-01-28T14:49:56.590Z,0.68
2023-01-28T14:52:24.141Z,0.88
2023-01-28T14:54:55.406Z,0.74
2023-01-28T14:57:18.442Z,0.60
2023-01-28T14:59:31.460Z,0.51
2023-01-28T15:01:46.474Z,0.55
2023-01-28T15:03:55.234Z,0.49
2023-01-28T15:06:07.621Z,0.47
2023-01-28T15:08:24.462Z,0.54
2023-01-28T15:10:35.401Z,0.50
2023-01-28T15:12:47.985Z,0.56
2023-01-28T15:15:00.386Z,0.63
2023-01-28T15:17:09.085Z,0.68
2023-01-28T15:19:19.111Z,0.72
2023-01-28T15:21:30.422Z,0.73
2023-01-28T15:23:40.414Z,0.70
2023-01-28T15:25:48.869Z,0.58
2023-01-28T15:27:58.733Z,0.56
2023-01-28T15:30:23.909Z,0.69
2023-01-28T15:32:33.685Z,0.76
2023-01-28T15:34:49.052Z,0.82
2023-01-28T15:36:57.054Z,1.00
2023-01-28T15:39:05.468Z,0.95
2023-01-28T15:41:15.275Z,0.97
2023-01-28T15:43:25.899Z,1.03
2023-01-28T15:45:37.788Z,0.98
2023-01-28T15:47:45.921Z,0.91
2023-01-28T15:49:56.862Z,0.85
2023-01-28T15:52:05.438Z,0.83
2023-01-28T15:54:14.585Z,0.83
2023-01-28T15:56:28.900Z,0.76
2023-01-28T15:58:41.339Z,0.77
2023-01-28T16:00:52.268Z,0.70
2023-01-28T16:03:14.018Z,0.60
2023-01-28T16:05:31.811Z,0.63
2023-01-28T16:07:48.388Z,0.60
2023-01-28T16:09:59.425Z,0.49
2023-01-28T16:12:09.935Z,0.49
2023-01-28T16:14:27.245Z,0.59
2023-01-28T16:16:40.524Z,0.45
2023-01-28T16:18:51.974Z,0.50
2023-01-28T16:21:00.208Z,0.52
2023-01-28T16:23:23.408Z,0.45
2023-01-28T16:25:34.011Z,0.37
2023-01-28T16:27:41.783Z,0.43
2023-01-28T16:29:50.091Z,0.38
2023-01-28T16:32:03.800Z,0.39
2023-01-28T16:34:13.751Z,0.48
2023-01-28T16:36:22.305Z,0.34
2023-01-28T16:38:30.468Z,0.28
2023-01-28T16:40:41.687Z,0.34
2023-01-28T16:42:50.729Z,0.34
2023-01-28T16:44:59.028Z,0.36
2023-01-28T16:47:12.000Z,0.30
2023-01-28T16:49:20.225Z,0.32
2023-01-28T16:51:29.132Z,0.30
2023-01-28T16:53:38.054Z,0.33
2023-01-28T16:55:46.207Z,0.28
2023-01-28T16:57:56.718Z,0.32
2023-01-28T17:00:04.880Z,0.36
2023-01-28T17:02:18.150Z,0.25
2023-01-28T17:04:26.153Z,0.27
2023-01-28T17:06:36.646Z,0.25
2023-01-28T17:08:45.218Z,0.31
2023-01-28T17:10:57.528Z,0.19
2023-01-28T17:13:06.047Z,0.25
2023-01-28T17:15:18.094Z,0.25
2023-01-28T17:17:29.021Z,0.27
2023-01-28T17:19:37.524Z,0.22
2023-01-28T17:21:51.900Z,0.17
2023-01-28T17:23:59.886Z,0.16
2023-01-28T17:26:08.929Z,0.26
2023-01-28T17:28:16.798Z,0.24
2023-01-28T17:30:25.106Z,0.27
2023-01-28T17:32:35.778Z,0.25
2023-01-28T17:34:43.793Z,0.38
2023-01-28T17:36:51.951Z,0.28
2023-01-28T17:39:00.294Z,0.24
2023-01-28T17:41:11.472Z,0.36
2023-01-28T17:43:19.409Z,0.25
2023-01-28T17:45:27.580Z,0.25
2023-01-28T17:47:38.034Z,0.24
2023-01-28T17:49:45.924Z,0.23
2023-01-28T17:51:53.824Z,0.15
2023-01-28T17:54:02.046Z,0.15
2023-01-28T17:56:18.916Z,0.16
2023-01-28T17:58:27.032Z,0.17
2023-01-28T18:00:35.157Z,0.34
2023-01-28T18:02:45.918Z,0.32
2023-01-28T18:04:54.415Z,0.17
2023-01-28T18:07:02.347Z,0.16
2023-01-28T18:09:10.420Z,0.11
2023-01-28T18:11:21.089Z,0.07
2023-01-28T18:13:29.176Z,0.05
2023-01-28T18:15:37.211Z,0.08
2023-01-28T18:17:47.846Z,0.11
2023-01-28T18:19:56.167Z,0.13
2023-01-28T18:22:04.146Z,0.09
2023-01-28T18:24:13.147Z,-0.06
2023-01-28T18:26:21.199Z,-0.14
2023-01-28T18:28:30.014Z,-0.14
2023-01-28T18:30:38.140Z,-0.25
2023-01-28T18:32:48.964Z,-0.26
2023-01-28T18:34:56.885Z,-0.24
2023-01-28T18:37:07.773Z,-0.23
2023-01-28T18:39:16.448Z,-0.33
2023-01-28T18:41:24.449Z,-0.42
2023-01-28T18:43:32.964Z,-0.46
2023-01-28T18:45:42.370Z,-0.58
2023-01-28T18:47:53.029Z,-0.63
2023-01-28T18:50:00.904Z,-0.67
2023-01-28T18:52:08.989Z,-0.78
2023-01-28T18:54:20.431Z,-0.87
2023-01-28T18:56:29.169Z,-0.85
2023-01-28T18:58:37.059Z,-0.75
2023-01-28T19:00:45.045Z,-0.69
2023-01-28T19:02:55.699Z,-0.58
2023-01-28T19:05:03.803Z,-0.67
2023-01-28T19:07:12.088Z,-0.77
2023-01-28T19:09:20.446Z,-0.78
2023-01-28T19:11:32.230Z,-0.64
2023-01-28T19:13:40.220Z,-0.61
2023-01-28T19:15:48.287Z,-0.52
2023-01-28T19:17:58.814Z,-0.45
2023-01-28T19:20:07.396Z,-0.39
2023-01-28T19:22:15.199Z,-0.31
2023-01-28T19:24:23.638Z,-0.25
2023-01-28T19:26:48.947Z,-0.13
2023-01-28T19:29:05.147Z,-0.03
2023-01-28T19:31:14.435Z,-0.04
2023-01-28T19:33:24.985Z,0.13
2023-01-28T19:35:33.220Z,0.12
2023-01-28T19:37:41.122Z,0.19
2023-01-28T19:39:49.459Z,0.16
2023-01-28T19:41:57.435Z,0.38
2023-01-28T19:44:06.364Z,0.37
2023-01-28T19:46:19.129Z,0.37
2023-01-28T19:48:30.696Z,0.43
2023-01-28T19:50:39.843Z,0.45
2023-01-28T19:52:47.744Z,0.48
2023-01-28T19:54:57.513Z,0.44
2023-01-28T19:57:05.492Z,0.51
2023-01-28T19:59:15.171Z,0.56
2023-01-28T20:01:28.659Z,0.57
2023-01-28T20:03:41.234Z,0.47
2023-01-28T20:05:49.596Z,0.42
2023-01-28T20:07:57.432Z,0.40
2023-01-28T20:10:05.326Z,0.46
2023-01-28T20:12:15.101Z,0.23
2023-01-28T20:14:23.472Z,0.28
2023-01-28T20:16:33.477Z,0.23
2023-01-28T20:18:44.282Z,0.42
2023-01-28T20:20:55.281Z,0.51
2023-01-28T20:23:05.764Z,0.46
2023-01-28T20:25:13.961Z,0.57
2023-01-28T20:27:22.203Z,0.72
2023-01-28T20:29:30.610Z,0.57
2023-01-28T20:31:39.529Z,0.52
2023-01-28T20:33:50.583Z,0.56
2023-01-28T20:36:04.224Z,0.55
2023-01-28T20:38:12.437Z,0.44
2023-01-28T20:40:20.484Z,0.35
2023-01-28T20:42:28.727Z,0.37
2023-01-28T20:44:36.994Z,0.41
2023-01-28T20:46:45.032Z,0.47
2023-01-28T20:48:56.930Z,0.39
2023-01-28T20:51:09.234Z,0.28
2023-01-28T20:53:17.334Z,0.33
2023-01-28T20:55:25.359Z,0.29
2023-01-28T20:57:33.337Z,0.31
2023-01-28T20:59:41.380Z,0.42
2023-01-28T21:01:49.865Z,0.31
2023-01-28T21:04:00.895Z,0.32
2023-01-28T21:06:09.204Z,0.32
2023-01-28T21:08:18.298Z,0.28
2023-01-28T21:10:26.455Z,0.24
2023-01-28T21:12:34.942Z,0.21
2023-01-28T21:14:43.493Z,0.19
2023-01-28T21:16:53.127Z,0.23
2023-01-28T21:19:04.016Z,0.35
2023-01-28T21:21:15.621Z,0.37
2023-01-28T21:23:26.051Z,0.44
2023-01-28T21:25:35.785Z,0.39
2023-01-28T21:27:43.886Z,0.22
2023-01-28T21:29:51.889Z,0.30
2023-01-28T21:32:00.044Z,0.21
2023-01-28T21:34:10.586Z,0.36
2023-01-28T21:36:19.599Z,0.38
2023-01-28T21:38:27.608Z,0.41
2023-01-28T21:40:36.476Z,0.42
2023-01-28T21:42:44.710Z,0.49
2023-01-28T21:44:52.636Z,0.38
2023-01-28T21:47:00.714Z,0.53
2023-01-28T21:49:13.949Z,0.34
2023-01-28T21:51:34.439Z,0.38
2023-01-28T21:53:44.381Z,0.32
2023-01-28T21:55:52.264Z,0.23
2023-01-28T21:58:20.139Z,0.33
2023-01-28T22:00:25.535Z,0.32
2023-01-28T22:02:34.200Z,0.25
2023-01-28T22:04:46.454Z,0.17
2023-01-28T22:06:56.749Z,0.17
2023-01-28T22:09:04.750Z,0.09
2023-01-28T22:11:12.862Z,0.17
2023-01-28T22:13:20.756Z,0.02
2023-01-28T22:15:28.686Z,0.08
2023-01-28T22:17:36.597Z,0.14
2023-01-28T22:19:48.256Z,0.07
2023-01-28T22:21:56.219Z,0.16
2023-01-28T22:24:04.362Z,0.19
2023-01-28T22:26:12.241Z,0.03
2023-01-28T22:28:20.173Z,-0.03
2023-01-28T22:30:27.944Z,-0.06
2023-01-28T22:32:35.757Z,0.01
2023-01-28T22:34:47.046Z,-0.09
2023-01-28T22:36:55.324Z,-0.09
2023-01-28T22:39:04.598Z,-0.28
2023-01-28T22:41:14.802Z,-0.13
2023-01-28T22:43:22.786Z,-0.01
2023-01-28T22:45:30.801Z,-0.04
2023-01-28T22:47:38.686Z,-0.04
2023-01-28T22:49:49.555Z,-0.01
2023-01-28T22:51:57.599Z,0.03
2023-01-28T22:54:06.514Z,-0.08
2023-01-28T22:56:15.098Z,-0.04
2023-01-28T22:58:22.914Z,-0.05
2023-01-28T23:00:31.237Z,0.13
2023-01-28T23:02:39.125Z,0.06
2023-01-28T23:04:51.009Z,-0.14
2023-01-28T23:06:59.226Z,-0.10
2023-01-28T23:09:07.495Z,-0.13
2023-01-28T23:11:25.168Z,-0.15
2023-01-28T23:13:55.157Z,-0.02
2023-01-28T23:16:15.366Z,-0.01
2023-01-28T23:18:37.381Z,-0.05
2023-01-28T23:21:00.392Z,-0.01
2023-01-28T23:23:21.225Z,-0.12
2023-01-28T23:25:29.616Z,-0.23
2023-01-28T23:27:37.609Z,-0.21
2023-01-28T23:29:45.624Z,-0.25
2023-01-28T23:31:55.558Z,-0.17
2023-01-28T23:34:03.749Z,-0.08
2023-01-28T23:36:14.591Z,-0.10
2023-01-28T23:38:22.773Z,-0.25
2023-01-28T23:40:30.961Z,-0.13
2023-01-28T23:42:39.077Z,-0.15
2023-01-28T23:44:47.688Z,-0.20
2023-01-28T23:46:56.667Z,-0.11
2023-01-28T23:49:05.198Z,-0.13
2023-01-28T23:51:15.971Z,-0.19
2023-01-28T23:53:23.925Z,-0.16
2023-01-28T23:55:31.763Z,-0.21
2023-01-28T23:57:39.920Z,-0.12
2023-01-28T23:59:47.696Z,-0.03
